Time;durP1;ratioP1;P1;durP2;ratioP2;P2;SDS_P1;SDS_P2;PMS_P1;PMS_P2;Temp;Humidity;BMP_temperature;BMP_pressure;BME280_temperature;BME280_humidity;BME280_pressure;Samples;Min_cycle;Max_cycle;Signal;HPM_P1;HPM_P2
2022/02/25 00:01:47;;;;;;;;;;;7.60;99.90;;;;;;4935118;29;19915;-89
2022/02/25 00:04:13;;;;;;;;;;;7.70;99.90;;;;;;4932761;29;20362;-88
2022/02/25 00:06:38;;;;;;;;;;;7.70;99.90;;;;;;4933441;29;19911;-88
2022/02/25 00:09:07;;;;;;;;;;;7.60;99.90;;;;;;4933688;29;20110;-88
2022/02/25 00:11:33;;;;;;;;;;;7.60;99.90;;;;;;4952521;29;19997;-88
2022/02/25 00:13:59;;;;;;;;;;;7.50;99.90;;;;;;4935019;29;20404;-88
2022/02/25 00:16:24;;;;;;;;;;;7.40;99.90;;;;;;4935315;29;19946;-92
2022/02/25 00:18:50;;;;;;;;;;;7.40;99.90;;;;;;4954945;29;19907;-88
2022/02/25 00:21:16;;;;;;;;;;;7.40;99.90;;;;;;4934793;29;19932;-88
2022/02/25 00:23:41;;;;;;;;;;;7.30;99.90;;;;;;4953862;29;19918;-88
2022/02/25 00:26:07;;;;;;;;;;;7.30;99.90;;;;;;4952702;29;19911;-88
2022/02/25 00:28:33;;;;;;;;;;;7.40;99.90;;;;;;4952688;29;20017;-88
2022/02/25 00:30:58;;;;;;;;;;;7.40;99.90;;;;;;4953519;29;20246;-92
2022/02/25 00:33:24;;;;;;;;;;;7.40;99.90;;;;;;4952978;29;19911;-88
2022/02/25 00:35:50;;;;;;;;;;;7.40;99.90;;;;;;4953990;29;19989;-89
2022/02/25 00:38:16;;;;;;;;;;;7.40;99.90;;;;;;4952211;29;20339;-88
2022/02/25 00:40:42;;;;;;;;;;;7.40;99.90;;;;;;4952588;29;19911;-87
2022/02/25 00:43:07;;;;;;;;;;;7.40;99.90;;;;;;4954181;29;19917;-88
2022/02/25 00:45:33;;;;;;;;;;;7.30;99.90;;;;;;4953310;29;19958;-88
2022/02/25 00:47:59;;;;;;;;;;;7.20;99.90;;;;;;4950810;29;19918;-87
2022/02/25 00:50:24;;;;;;;;;;;7.10;99.90;;;;;;4937121;29;19993;-88
2022/02/25 00:52:50;;;;;;;;;;;7.00;99.90;;;;;;4952207;29;20002;-90
2022/02/25 00:55:15;;;;;;;;;;;7.00;99.90;;;;;;4954857;29;19914;-88
2022/02/25 00:57:47;;;;;;;;;;;7.00;99.90;;;;;;4936211;29;20323;-88
2022/02/25 01:00:14;;;;;;;;;;;6.90;99.90;;;;;;4952073;29;19969;-88
2022/02/25 01:02:40;;;;;;;;;;;7.00;99.90;;;;;;4952117;29;20310;-88
2022/02/25 01:05:06;;;;;;;;;;;7.00;99.90;;;;;;4952081;29;20005;-91
2022/02/25 01:07:31;;;;;;;;;;;6.90;99.90;;;;;;4954990;29;19996;-87
2022/02/25 01:09:57;;;;;;;;;;;6.90;99.90;;;;;;4954891;29;19926;-90
2022/02/25 01:12:22;;;;;;;;;;;6.90;99.90;;;;;;4951631;29;20386;-89
2022/02/25 01:14:48;;;;;;;;;;;7.00;99.90;;;;;;4952353;29;19970;-90
2022/02/25 01:17:14;;;;;;;;;;;7.00;99.90;;;;;;4951680;29;19982;-88
2022/02/25 01:19:39;;;;;;;;;;;7.00;99.90;;;;;;4951938;29;19910;-88
2022/02/25 01:22:05;;;;;;;;;;;7.00;99.90;;;;;;4952106;29;19910;-89
2022/02/25 01:24:30;;;;;;;;;;;7.00;99.90;;;;;;4951870;29;20264;-88
2022/02/25 01:26:56;;;;;;;;;;;6.90;99.90;;;;;;4951526;29;20025;-88
2022/02/25 01:29:21;;;;;;;;;;;6.90;99.90;;;;;;4952339;29;19921;-88
2022/02/25 01:31:47;;;;;;;;;;;6.90;99.90;;;;;;4954006;29;20383;-88
2022/02/25 01:34:13;;;;;;;;;;;6.90;99.90;;;;;;4954118;28;20272;-88
2022/02/25 01:36:39;;;;;;;;;;;6.90;99.90;;;;;;4937768;29;19917;-88
2022/02/25 01:39:04;;;;;;;;;;;6.90;99.90;;;;;;4955441;29;19917;-89
2022/02/25 01:41:31;;;;;;;;;;;6.80;99.90;;;;;;4954792;29;20386;-89
2022/02/25 01:44:13;;;;;;;;;;;6.80;99.90;;;;;;4938352;29;19914;-88
2022/02/25 01:46:39;;;;;;;;;;;6.70;99.90;;;;;;4955318;29;20383;-88
2022/02/25 01:49:04;;;;;;;;;;;6.70;99.90;;;;;;4955477;29;19957;-88
2022/02/25 01:51:30;;;;;;;;;;;6.70;99.90;;;;;;4954957;29;19911;-88
2022/02/25 01:53:55;;;;;;;;;;;6.70;99.90;;;;;;4955154;29;20122;-88
2022/02/25 01:56:21;;;;;;;;;;;6.70;99.90;;;;;;4954738;29;19934;-88
2022/02/25 01:58:46;;;;;;;;;;;6.60;99.90;;;;;;4937356;29;19911;-88
2022/02/25 02:01:12;;;;;;;;;;;6.70;99.90;;;;;;4955606;29;19914;-89
2022/02/25 02:03:38;;;;;;;;;;;6.60;99.90;;;;;;4955563;29;19962;-88
2022/02/25 02:06:06;;;;;;;;;;;6.70;99.90;;;;;;4939299;29;19961;-89
2022/02/25 02:08:32;;;;;;;;;;;6.70;99.90;;;;;;4957766;29;19914;-89
2022/02/25 02:10:58;;;;;;;;;;;6.80;99.90;;;;;;4958651;29;19966;-88
2022/02/25 02:13:24;;;;;;;;;;;6.80;99.90;;;;;;4955347;29;20387;-91
2022/02/25 02:15:49;;;;;;;;;;;6.80;99.90;;;;;;4954512;29;19917;-88
2022/02/25 02:18:15;;;;;;;;;;;6.80;99.90;;;;;;4955497;29;19914;-89
2022/02/25 02:20:40;;;;;;;;;;;6.70;99.90;;;;;;4937420;29;20296;-89
2022/02/25 02:23:06;;;;;;;;;;;6.60;99.90;;;;;;4937151;29;19997;-88
2022/02/25 02:25:32;;;;;;;;;;;6.50;99.90;;;;;;4954534;29;20011;-90
2022/02/25 02:30:42;;;;;;;;;;;6.40;99.90;;;;;;4954658;29;19918;-88
2022/02/25 02:33:08;;;;;;;;;;;6.30;99.90;;;;;;4953964;29;19910;-89
2022/02/25 02:35:34;;;;;;;;;;;6.20;99.90;;;;;;4959467;29;19921;-88
2022/02/25 02:37:59;;;;;;;;;;;6.10;99.90;;;;;;4937455;29;20302;-88
2022/02/25 02:40:25;;;;;;;;;;;6.10;99.90;;;;;;4959742;29;19985;-90
2022/02/25 02:42:50;;;;;;;;;;;6.10;99.90;;;;;;4956104;29;19911;-89
2022/02/25 02:45:16;;;;;;;;;;;6.10;99.90;;;;;;4956022;28;20319;-89
2022/02/25 02:47:42;;;;;;;;;;;6.00;99.90;;;;;;4957611;29;19919;-88
2022/02/25 02:50:08;;;;;;;;;;;6.00;99.90;;;;;;4957259;29;19911;-90
2022/02/25 02:52:33;;;;;;;;;;;5.90;99.90;;;;;;4964160;29;20187;-88
2022/02/25 02:54:59;;;;;;;;;;;5.90;99.90;;;;;;4964640;29;20379;-89
2022/02/25 02:57:25;;;;;;;;;;;5.80;99.90;;;;;;4966180;29;19911;-88
2022/02/25 02:59:50;;;;;;;;;;;5.80;99.90;;;;;;4968099;29;19911;-90
2022/02/25 03:02:16;;;;;;;;;;;5.80;99.90;;;;;;4964291;29;20013;-89
2022/02/25 03:04:42;;;;;;;;;;;5.70;99.90;;;;;;4958500;29;19954;-89
2022/02/25 03:07:10;;;;;;;;;;;5.70;99.90;;;;;;4964619;29;20315;-88
2022/02/25 03:09:36;;;;;;;;;;;5.70;99.90;;;;;;4964900;29;19923;-88
2022/02/25 03:12:02;;;;;;;;;;;5.70;99.90;;;;;;4944410;29;20295;-89
2022/02/25 03:14:28;;;;;;;;;;;5.60;99.90;;;;;;4963658;29;19911;-88
2022/02/25 03:16:53;;;;;;;;;;;5.60;99.90;;;;;;4961181;29;20362;-89
2022/02/25 03:19:19;;;;;;;;;;;5.60;99.90;;;;;;4959288;29;19938;-88
2022/02/25 03:21:45;;;;;;;;;;;5.60;99.90;;;;;;4961999;29;19914;-88
2022/02/25 03:24:10;;;;;;;;;;;5.60;99.90;;;;;;4963367;29;19906;-88
2022/02/25 03:26:36;;;;;;;;;;;5.50;99.90;;;;;;4962183;29;19918;-88
2022/02/25 03:29:03;;;;;;;;;;;5.40;99.90;;;;;;4942091;29;19925;-89
2022/02/25 03:31:29;;;;;;;;;;;5.40;99.90;;;;;;4958520;29;19911;-88
2022/02/25 03:33:54;;;;;;;;;;;5.30;99.90;;;;;;4954621;29;19985;-91
2022/02/25 03:36:20;;;;;;;;;;;5.30;99.90;;;;;;4955490;29;20376;-89
2022/02/25 03:38:45;;;;;;;;;;;5.30;99.90;;;;;;4953655;29;20334;-88
2022/02/25 03:41:11;;;;;;;;;;;5.20;99.90;;;;;;4962627;29;20374;-89
2022/02/25 03:43:36;;;;;;;;;;;5.20;99.90;;;;;;4954073;29;19933;-89
2022/02/25 03:46:02;;;;;;;;;;;5.10;99.90;;;;;;4958902;29;19910;-89
2022/02/25 03:48:28;;;;;;;;;;;5.10;99.90;;;;;;4952926;29;19919;-89
2022/02/25 03:50:53;;;;;;;;;;;5.10;99.90;;;;;;4954872;29;19965;-90
2022/02/25 03:53:19;;;;;;;;;;;5.10;99.90;;;;;;4938398;29;19914;-89
2022/02/25 03:55:44;;;;;;;;;;;5.10;99.90;;;;;;4956815;28;20328;-88
2022/02/25 03:58:10;;;;;;;;;;;5.10;99.90;;;;;;4954340;29;19954;-91
2022/02/25 04:00:37;;;;;;;;;;;5.00;99.90;;;;;;4954712;29;19910;-88
2022/02/25 04:03:03;;;;;;;;;;;5.00;99.90;;;;;;4929502;29;19911;-89
2022/02/25 04:05:29;;;;;;;;;;;5.00;99.90;;;;;;4954340;29;20418;-88
2022/02/25 04:07:54;;;;;;;;;;;4.90;99.90;;;;;;4952644;29;19938;-90
2022/02/25 04:10:20;;;;;;;;;;;4.90;99.90;;;;;;4932062;29;20380;-89
2022/02/25 04:12:45;;;;;;;;;;;4.90;99.90;;;;;;4927855;29;19958;-88
2022/02/25 04:15:11;;;;;;;;;;;4.90;99.90;;;;;;4914892;29;20292;-89
2022/02/25 04:17:37;;;;;;;;;;;4.90;99.90;;;;;;4915218;29;19927;-89
2022/02/25 04:20:04;;;;;;;;;;;4.90;99.90;;;;;;4915231;29;20400;-88
2022/02/25 04:22:29;;;;;;;;;;;4.90;99.90;;;;;;4914468;29;20474;-88
2022/02/25 04:24:55;;;;;;;;;;;4.90;99.90;;;;;;4914844;29;19986;-89
2022/02/25 04:27:21;;;;;;;;;;;4.90;99.90;;;;;;4913407;29;19919;-88
2022/02/25 04:29:47;;;;;;;;;;;4.90;99.90;;;;;;4924468;29;20284;-89
2022/02/25 04:32:12;;;;;;;;;;;4.90;99.90;;;;;;4936843;29;19917;-89
2022/02/25 04:34:38;;;;;;;;;;;4.90;99.90;;;;;;4936205;29;19915;-89
2022/02/25 04:37:03;;;;;;;;;;;4.90;99.90;;;;;;4933462;29;20001;-87
2022/02/25 04:39:29;;;;;;;;;;;4.80;99.90;;;;;;4933450;29;19911;-88
2022/02/25 04:41:54;;;;;;;;;;;4.80;99.90;;;;;;4935147;29;19918;-89
2022/02/25 04:44:22;;;;;;;;;;;4.70;99.90;;;;;;4919219;29;19919;-88
2022/02/25 04:46:47;;;;;;;;;;;4.70;99.90;;;;;;4928550;29;19915;-90
2022/02/25 04:49:13;;;;;;;;;;;4.60;99.90;;;;;;4936589;29;19911;-88
2022/02/25 04:51:40;;;;;;;;;;;4.60;99.90;;;;;;4935728;29;20464;-88
2022/02/25 04:54:05;;;;;;;;;;;4.60;99.90;;;;;;4934716;29;19926;-89
2022/02/25 04:56:31;;;;;;;;;;;4.60;99.90;;;;;;4928008;29;20206;-88
2022/02/25 04:58:56;;;;;;;;;;;4.60;99.90;;;;;;4932817;29;20295;-88
2022/02/25 05:01:22;;;;;;;;;;;4.60;99.90;;;;;;4908208;29;19912;-88
2022/02/25 05:03:48;;;;;;;;;;;4.60;99.90;;;;;;4920742;29;20380;-88
2022/02/25 05:06:14;;;;;;;;;;;4.60;99.90;;;;;;4934655;29;20372;-88
2022/02/25 05:08:40;;;;;;;;;;;4.50;99.90;;;;;;4934172;29;19974;-88
2022/02/25 05:11:05;;;;;;;;;;;4.50;99.90;;;;;;4934983;29;19930;-89
2022/02/25 05:13:31;;;;;;;;;;;4.50;99.90;;;;;;4936278;29;19910;-91
2022/02/25 05:21:25;;;;;;;;;;;4.50;99.90;;;;;;4918300;29;19970;-88
2022/02/25 05:23:50;;;;;;;;;;;4.50;99.90;;;;;;4921469;29;19907;-89
2022/02/25 05:26:16;;;;;;;;;;;4.40;99.90;;;;;;4931532;29;20010;-89
2022/02/25 05:28:41;;;;;;;;;;;4.40;99.90;;;;;;4936574;29;20296;-90
2022/02/25 05:31:07;;;;;;;;;;;4.40;99.90;;;;;;4937589;29;19911;-89
2022/02/25 05:33:34;;;;;;;;;;;4.40;99.90;;;;;;4939118;29;19910;-88
2022/02/25 05:35:59;;;;;;;;;;;4.40;99.90;;;;;;4935731;29;20016;-88
2022/02/25 05:38:25;;;;;;;;;;;4.40;99.90;;;;;;4935935;29;19924;-88
2022/02/25 05:40:51;;;;;;;;;;;4.30;99.90;;;;;;4936592;29;20002;-89
2022/02/25 05:43:17;;;;;;;;;;;4.40;99.90;;;;;;4934641;29;20309;-88
2022/02/25 05:45:42;;;;;;;;;;;4.40;99.90;;;;;;4936382;29;20335;-88
2022/02/25 05:48:08;;;;;;;;;;;4.40;99.90;;;;;;4936403;29;20427;-88
2022/02/25 05:50:34;;;;;;;;;;;4.30;99.90;;;;;;4936452;29;19978;-88
2022/02/25 05:53:00;;;;;;;;;;;4.30;99.90;;;;;;4918353;29;19912;-88
2022/02/25 05:55:25;;;;;;;;;;;4.30;99.90;;;;;;4915904;29;19911;-89
2022/02/25 05:57:51;;;;;;;;;;;4.30;99.90;;;;;;4921492;29;20013;-88
2022/02/25 06:00:18;;;;;;;;;;;4.30;99.90;;;;;;4934347;29;20439;-88
2022/02/25 06:02:44;;;;;;;;;;;4.30;99.90;;;;;;4923160;29;20320;-89
2022/02/25 06:05:10;;;;;;;;;;;4.20;99.90;;;;;;4916257;29;19978;-91
2022/02/25 06:07:35;;;;;;;;;;;4.20;99.90;;;;;;4920612;29;19958;-88
2022/02/25 06:10:01;;;;;;;;;;;4.20;99.90;;;;;;4932689;29;19970;-88
2022/02/25 06:12:27;;;;;;;;;;;4.20;99.90;;;;;;4937099;29;19910;-88
2022/02/25 06:14:52;;;;;;;;;;;4.20;99.90;;;;;;4954703;29;19961;-88
2022/02/25 06:17:18;;;;;;;;;;;4.20;99.90;;;;;;4954836;29;19914;-88
2022/02/25 06:19:43;;;;;;;;;;;4.20;99.90;;;;;;4938050;29;19949;-88
2022/02/25 06:22:09;;;;;;;;;;;4.20;99.90;;;;;;4961246;29;19986;-92
2022/02/25 06:24:35;;;;;;;;;;;4.20;99.90;;;;;;4938983;29;19921;-92
2022/02/25 06:27:01;;;;;;;;;;;4.20;99.90;;;;;;4936042;29;19911;-91
2022/02/25 06:29:26;;;;;;;;;;;4.20;99.90;;;;;;4939452;29;19946;-91
2022/02/25 06:31:52;;;;;;;;;;;4.10;99.90;;;;;;4937960;29;19929;-92
2022/02/25 06:34:17;;;;;;;;;;;4.10;99.90;;;;;;4937857;29;19911;-92
2022/02/25 06:36:43;;;;;;;;;;;4.10;99.90;;;;;;4936252;29;19938;-92
2022/02/25 06:39:09;;;;;;;;;;;4.10;99.90;;;;;;4936999;29;19911;-92
2022/02/25 06:41:35;;;;;;;;;;;4.10;99.90;;;;;;4949287;29;19914;-92
2022/02/25 06:44:00;;;;;;;;;;;4.10;99.90;;;;;;4937551;29;20276;-91
2022/02/25 06:46:26;;;;;;;;;;;4.10;99.90;;;;;;4938680;29;19936;-91
2022/02/25 06:48:51;;;;;;;;;;;4.10;99.90;;;;;;4940926;29;20151;-93
2022/02/25 06:51:17;;;;;;;;;;;4.10;99.90;;;;;;4943180;29;19918;-93
2022/02/25 06:53:43;;;;;;;;;;;4.10;99.90;;;;;;4937698;29;20344;-92
2022/02/25 06:56:09;;;;;;;;;;;4.10;99.90;;;;;;4938892;29;20265;-92
2022/02/25 06:58:34;;;;;;;;;;;4.10;99.90;;;;;;4940703;29;19948;-92
2022/02/25 07:01:01;;;;;;;;;;;4.10;99.90;;;;;;4946496;29;19906;-91
2022/02/25 07:03:27;;;;;;;;;;;4.10;99.90;;;;;;4947900;29;20112;-94
2022/02/25 07:05:53;;;;;;;;;;;4.20;99.90;;;;;;4946292;29;19907;-92
2022/02/25 07:08:22;;;;;;;;;;;4.10;99.90;;;;;;4946049;29;20003;-93
2022/02/25 07:10:48;;;;;;;;;;;4.20;99.90;;;;;;4947532;29;20110;-91
2022/02/25 07:13:13;;;;;;;;;;;4.30;99.90;;;;;;4963059;29;19911;-93
2022/02/25 07:15:40;;;;;;;;;;;4.30;99.90;;;;;;4943627;29;19999;-94
2022/02/25 07:18:06;;;;;;;;;;;4.40;99.90;;;;;;4938531;29;20521;-93
2022/02/25 07:20:32;;;;;;;;;;;4.40;99.90;;;;;;4937528;29;19922;-94
2022/02/25 07:22:57;;;;;;;;;;;4.40;99.90;;;;;;4937904;29;19917;-94
2022/02/25 07:25:23;;;;;;;;;;;4.40;99.90;;;;;;4937647;29;19921;-92
2022/02/25 07:27:49;;;;;;;;;;;4.40;99.90;;;;;;4938024;29;19926;-94
2022/02/25 07:30:15;;;;;;;;;;;4.40;99.90;;;;;;4943529;28;19922;-93
2022/02/25 07:32:40;;;;;;;;;;;4.60;99.90;;;;;;4944105;29;19934;-93
2022/02/25 07:35:07;;;;;;;;;;;4.60;99.90;;;;;;4938896;29;19918;-93
2022/02/25 07:37:33;;;;;;;;;;;4.70;99.90;;;;;;4937610;29;20337;-93
2022/02/25 07:40:00;;;;;;;;;;;4.70;99.90;;;;;;4937594;29;19948;-94
2022/02/25 07:42:26;;;;;;;;;;;4.80;99.90;;;;;;4937375;29;19910;-93
2022/02/25 07:44:51;;;;;;;;;;;5.00;99.90;;;;;;4938952;29;19965;-93
2022/02/25 07:47:19;;;;;;;;;;;5.00;99.90;;;;;;4939537;29;19926;-95
2022/02/25 07:49:48;;;;;;;;;;;5.10;99.90;;;;;;4940124;29;19915;-94
2022/02/25 07:52:14;;;;;;;;;;;5.20;99.90;;;;;;4943051;29;20286;-94
2022/02/25 07:54:40;;;;;;;;;;;5.30;99.90;;;;;;4937586;29;19997;-94
2022/02/25 07:57:06;;;;;;;;;;;5.30;99.90;;;;;;4937226;29;19918;-93
2022/02/25 07:59:32;;;;;;;;;;;5.50;99.90;;;;;;4938104;29;19957;-93
2022/02/25 08:01:58;;;;;;;;;;;5.60;99.90;;;;;;4937736;29;19917;-95
2022/02/25 08:04:24;;;;;;;;;;;5.70;99.90;;;;;;4937636;29;19930;-94
2022/02/25 08:06:52;;;;;;;;;;;5.80;99.90;;;;;;4937751;29;19911;-95
2022/02/25 08:09:18;;;;;;;;;;;5.90;99.90;;;;;;4937350;29;19919;-95
2022/02/25 08:11:44;;;;;;;;;;;6.00;99.90;;;;;;4937119;29;19917;-94
2022/02/25 08:14:10;;;;;;;;;;;6.10;99.90;;;;;;4937831;29;19950;-94
2022/02/25 08:16:35;;;;;;;;;;;6.20;99.90;;;;;;4937324;29;19911;-94
2022/02/25 08:19:01;;;;;;;;;;;6.30;99.90;;;;;;4936931;29;19917;-95
2022/02/25 08:21:27;;;;;;;;;;;6.40;99.90;;;;;;4937493;29;19911;-95
2022/02/25 08:23:52;;;;;;;;;;;6.60;99.90;;;;;;4937573;29;20017;-94
2022/02/25 08:26:18;;;;;;;;;;;6.70;99.90;;;;;;4936804;29;19922;-94
2022/02/25 08:28:44;;;;;;;;;;;6.80;99.90;;;;;;4936628;29;19918;-94
2022/02/25 08:31:11;;;;;;;;;;;6.90;99.90;;;;;;4936820;29;19960;-93
2022/02/25 08:33:40;;;;;;;;;;;7.00;99.90;;;;;;4936798;29;20004;-94
2022/02/25 08:36:07;;;;;;;;;;;7.10;99.90;;;;;;4954692;29;19922;-94
2022/02/25 08:38:32;;;;;;;;;;;7.20;99.90;;;;;;4936967;29;20294;-94
2022/02/25 08:40:58;;;;;;;;;;;7.40;99.90;;;;;;4937255;29;19919;-93
2022/02/25 08:43:24;;;;;;;;;;;7.50;99.90;;;;;;4938488;29;19942;-93
2022/02/25 08:45:52;;;;;;;;;;;7.60;99.90;;;;;;4940813;29;19914;-94
2022/02/25 08:48:18;;;;;;;;;;;7.70;99.90;;;;;;4940526;29;19927;-94
2022/02/25 08:50:44;;;;;;;;;;;7.90;99.90;;;;;;4940428;29;19921;-94
2022/02/25 08:53:10;;;;;;;;;;;8.00;99.90;;;;;;4940243;29;19920;-94
2022/02/25 08:55:36;;;;;;;;;;;8.10;99.90;;;;;;4940473;29;19910;-93
2022/02/25 08:58:02;;;;;;;;;;;8.10;99.90;;;;;;4940800;29;20272;-95
2022/02/25 09:00:28;;;;;;;;;;;8.20;99.90;;;;;;4940204;29;19996;-93
2022/02/25 09:02:54;;;;;;;;;;;8.20;99.90;;;;;;4940446;29;19910;-94
2022/02/25 09:05:21;;;;;;;;;;;8.30;99.90;;;;;;4957153;29;19917;-94
2022/02/25 09:07:47;;;;;;;;;;;8.40;99.90;;;;;;4940529;29;20367;-93
2022/02/25 09:10:13;;;;;;;;;;;8.50;99.90;;;;;;4936440;29;19922;-94
2022/02/25 09:12:39;;;;;;;;;;;8.60;99.90;;;;;;4930931;29;19911;-94
2022/02/25 09:15:07;;;;;;;;;;;8.70;99.90;;;;;;4935554;29;20446;-93
2022/02/25 09:17:33;;;;;;;;;;;8.70;99.90;;;;;;4936341;29;20013;-94
2022/02/25 09:19:58;;;;;;;;;;;8.80;99.90;;;;;;4930603;29;19954;-95
2022/02/25 09:22:24;;;;;;;;;;;8.70;99.90;;;;;;4930049;29;20190;-95
2022/02/25 09:24:50;;;;;;;;;;;8.70;99.90;;;;;;4936292;29;19915;-91
2022/02/25 09:27:15;;;;;;;;;;;8.80;99.90;;;;;;4935690;29;19919;-90
2022/02/25 09:29:41;;;;;;;;;;;8.90;99.90;;;;;;4932649;29;19966;-94
2022/02/25 09:32:07;;;;;;;;;;;9.00;99.90;;;;;;4932839;29;19915;-94
2022/02/25 09:34:33;;;;;;;;;;;9.10;99.90;;;;;;4926660;29;19951;-92
2022/02/25 09:36:58;;;;;;;;;;;9.10;99.90;;;;;;4929799;29;19922;-92
2022/02/25 09:39:24;;;;;;;;;;;9.10;99.90;;;;;;4925911;29;20196;-93
2022/02/25 09:41:50;;;;;;;;;;;9.20;99.90;;;;;;4935250;29;19911;-92
2022/02/25 09:44:16;;;;;;;;;;;9.30;99.90;;;;;;4929530;29;19911;-92
2022/02/25 09:46:44;;;;;;;;;;;9.40;99.90;;;;;;4929331;29;20248;-95
2022/02/25 09:49:10;;;;;;;;;;;9.50;99.90;;;;;;4927856;29;19919;-92
2022/02/25 09:51:36;;;;;;;;;;;9.60;99.90;;;;;;4917301;29;19970;-92
2022/02/25 09:54:01;;;;;;;;;;;9.60;99.90;;;;;;4916441;29;19915;-91
2022/02/25 09:56:27;;;;;;;;;;;9.50;99.90;;;;;;4917110;29;19988;-90
2022/02/25 09:58:52;;;;;;;;;;;9.70;99.90;;;;;;4932207;29;19957;-92
2022/02/25 10:01:18;;;;;;;;;;;9.70;99.90;;;;;;4937325;29;19911;-91
2022/02/25 10:03:51;;;;;;;;;;;9.80;99.90;;;;;;4917281;29;20372;-92
2022/02/25 10:06:17;;;;;;;;;;;9.80;99.90;;;;;;4927409;29;19927;-91
2022/02/25 10:08:43;;;;;;;;;;;9.80;99.90;;;;;;4936177;29;19919;-91
2022/02/25 10:11:08;;;;;;;;;;;9.90;99.90;;;;;;4928407;29;20010;-91
2022/02/25 10:13:34;;;;;;;;;;;9.90;99.90;;;;;;4916987;29;19915;-90
2022/02/25 10:16:03;;;;;;;;;;;9.90;99.90;;;;;;4929120;29;20138;-93
2022/02/25 10:18:30;;;;;;;;;;;9.90;99.90;;;;;;4935378;29;19934;-91
2022/02/25 10:21:03;;;;;;;;;;;9.90;99.90;;;;;;4923914;29;20396;-92
2022/02/25 10:23:30;;;;;;;;;;;9.90;99.90;;;;;;4916617;29;19912;-91
2022/02/25 10:26:17;;;;;;;;;;;9.80;99.90;;;;;;4916157;29;19947;-91
2022/02/25 10:28:44;;;;;;;;;;;9.80;99.90;;;;;;4916643;29;19919;-92
2022/02/25 10:31:21;;;;;;;;;;;10.00;99.90;;;;;;4916715;29;19911;-92
2022/02/25 10:34:07;;;;;;;;;;;9.90;99.90;;;;;;4916161;29;19950;-91
2022/02/25 10:37:00;;;;;;;;;;;10.10;99.90;;;;;;4912905;29;20010;-93
2022/02/25 10:39:30;;;;;;;;;;;10.20;99.90;;;;;;4924971;29;19922;-91
2022/02/25 10:42:00;;;;;;;;;;;10.20;99.90;;;;;;4918088;29;19915;-91
2022/02/25 10:44:38;;;;;;;;;;;10.30;99.90;;;;;;4919651;29;19911;-91
2022/02/25 10:47:36;;;;;;;;;;;10.30;99.90;;;;;;4930500;29;19958;-92
2022/02/25 10:50:08;;;;;;;;;;;10.40;99.90;;;;;;4922508;29;19922;-92
2022/02/25 10:52:35;;;;;;;;;;;10.50;99.90;;;;;;4929061;29;19911;-93
2022/02/25 10:55:02;;;;;;;;;;;10.60;99.90;;;;;;4917441;29;19918;-92
2022/02/25 10:57:28;;;;;;;;;;;10.70;99.90;;;;;;4917695;29;19911;-93
2022/02/25 10:59:55;;;;;;;;;;;10.70;99.90;;;;;;4934440;29;19918;-91
2022/02/25 11:02:27;;;;;;;;;;;10.60;99.90;;;;;;4934085;29;19910;-93
2022/02/25 11:05:00;;;;;;;;;;;10.50;99.90;;;;;;4934157;29;19915;-91
2022/02/25 11:07:29;;;;;;;;;;;10.40;99.90;;;;;;4920883;29;19926;-92
2022/02/25 11:09:54;;;;;;;;;;;10.40;99.90;;;;;;4942239;29;19958;-91
2022/02/25 11:12:20;;;;;;;;;;;10.30;99.90;;;;;;4937397;29;19911;-91
2022/02/25 11:14:46;;;;;;;;;;;10.50;99.90;;;;;;4954690;29;19922;-91
2022/02/25 11:17:12;;;;;;;;;;;10.60;99.90;;;;;;4937187;29;19911;-91
2022/02/25 11:19:39;;;;;;;;;;;10.80;99.90;;;;;;4937308;29;19942;-91
2022/02/25 11:22:06;;;;;;;;;;;10.80;99.90;;;;;;4937327;29;19942;-91
2022/02/25 11:24:37;;;;;;;;;;;11.00;99.90;;;;;;4937828;28;20023;-92
2022/02/25 11:27:04;;;;;;;;;;;11.00;99.90;;;;;;4937143;29;20292;-91
2022/02/25 11:29:31;;;;;;;;;;;10.90;99.90;;;;;;4937554;29;19914;-91
2022/02/25 11:31:59;;;;;;;;;;;10.90;99.90;;;;;;4921716;29;19945;-92
2022/02/25 11:34:25;;;;;;;;;;;10.90;99.90;;;;;;4939154;29;20193;-92
2022/02/25 11:36:51;;;;;;;;;;;10.90;99.90;;;;;;4937593;29;19911;-92
2022/02/25 11:39:23;;;;;;;;;;;11.00;99.90;;;;;;4938231;29;19933;-92
2022/02/25 11:41:50;;;;;;;;;;;11.00;99.90;;;;;;4937221;29;19937;-93
2022/02/25 11:44:16;;;;;;;;;;;10.90;99.90;;;;;;4937584;29;20008;-92
2022/02/25 11:46:42;;;;;;;;;;;11.00;99.90;;;;;;4936905;29;19961;-92
2022/02/25 11:49:07;;;;;;;;;;;11.00;99.90;;;;;;4937448;29;20398;-92
2022/02/25 11:51:33;;;;;;;;;;;11.00;99.90;;;;;;4940286;29;19930;-92
2022/02/25 11:54:17;;;;;;;;;;;11.10;99.90;;;;;;4937937;29;19910;-92
2022/02/25 11:56:43;;;;;;;;;;;11.20;99.90;;;;;;4953950;29;19914;-92
2022/02/25 11:59:09;;;;;;;;;;;11.20;99.90;;;;;;4937027;29;19915;-92
2022/02/25 12:01:54;;;;;;;;;;;11.30;99.90;;;;;;4936896;29;19910;-92
2022/02/25 12:04:29;;;;;;;;;;;11.40;99.90;;;;;;4936069;29;19911;-94
2022/02/25 12:07:03;;;;;;;;;;;11.70;99.90;;;;;;4937213;29;20384;-92
2022/02/25 12:09:39;;;;;;;;;;;11.90;99.90;;;;;;4957711;29;19923;-95
2022/02/25 12:12:20;;;;;;;;;;;11.90;99.90;;;;;;4936871;29;19914;-91
2022/02/25 12:14:58;;;;;;;;;;;11.90;99.90;;;;;;4956865;29;20155;-92
2022/02/25 12:17:36;;;;;;;;;;;12.00;99.90;;;;;;4952904;28;20005;-92
2022/02/25 12:20:07;;;;;;;;;;;12.30;99.90;;;;;;4952625;29;20403;-92
2022/02/25 12:22:48;;;;;;;;;;;12.40;99.90;;;;;;4952815;29;19911;-92
2022/02/25 12:25:14;;;;;;;;;;;12.50;99.90;;;;;;4948134;28;19954;-91
2022/02/25 12:27:40;;;;;;;;;;;12.50;99.90;;;;;;4937431;29;19957;-92
2022/02/25 12:30:24;;;;;;;;;;;12.30;99.90;;;;;;4938174;29;19938;-93
2022/02/25 12:32:50;;;;;;;;;;;12.50;99.90;;;;;;4952400;29;19911;-92
2022/02/25 12:35:18;;;;;;;;;;;12.50;99.90;;;;;;4936330;29;19974;-92
2022/02/25 12:37:43;;;;;;;;;;;12.30;99.90;;;;;;4936830;29;19945;-92
2022/02/25 12:40:10;;;;;;;;;;;12.00;99.90;;;;;;4936484;29;19914;-92
2022/02/25 12:42:35;;;;;;;;;;;11.90;99.90;;;;;;4936738;29;19910;-92
2022/02/25 12:45:03;;;;;;;;;;;12.00;99.90;;;;;;4954834;29;20606;-93
2022/02/25 12:47:32;;;;;;;;;;;12.00;99.90;;;;;;4937352;29;19922;-92
2022/02/25 12:50:02;;;;;;;;;;;11.60;99.90;;;;;;4937452;29;19997;-92
2022/02/25 12:52:28;;;;;;;;;;;11.50;99.90;;;;;;4936293;29;19911;-92
2022/02/25 12:54:57;;;;;;;;;;;11.40;99.90;;;;;;4936201;29;19917;-92
2022/02/25 12:57:22;;;;;;;;;;;11.40;99.90;;;;;;4935964;29;19910;-92
2022/02/25 12:59:49;;;;;;;;;;;11.40;99.90;;;;;;4953413;29;19917;-92
2022/02/25 13:02:16;;;;;;;;;;;11.60;99.90;;;;;;4936035;29;19910;-92
2022/02/25 13:04:46;;;;;;;;;;;11.60;99.90;;;;;;4936727;29;19961;-92
2022/02/25 13:07:12;;;;;;;;;;;11.80;99.90;;;;;;4937760;29;19911;-92
2022/02/25 13:09:38;;;;;;;;;;;11.80;99.90;;;;;;4936818;29;19929;-92
2022/02/25 13:12:05;;;;;;;;;;;11.80;99.90;;;;;;4937778;29;19910;-92
2022/02/25 13:14:35;;;;;;;;;;;11.90;99.90;;;;;;4938721;29;19911;-92
2022/02/25 13:17:03;;;;;;;;;;;11.90;99.90;;;;;;4937326;29;20280;-92
2022/02/25 13:19:37;;;;;;;;;;;12.00;99.90;;;;;;4941527;29;19993;-92
2022/02/25 13:22:14;;;;;;;;;;;12.10;99.90;;;;;;4936934;29;20194;-93
2022/02/25 13:25:00;;;;;;;;;;;11.80;99.90;;;;;;4953547;29;19969;-92
2022/02/25 13:27:27;;;;;;;;;;;11.60;99.90;;;;;;4937264;29;19919;-92
2022/02/25 13:29:53;;;;;;;;;;;11.40;99.90;;;;;;4938589;29;19911;-92
2022/02/25 13:32:24;;;;;;;;;;;11.50;99.90;;;;;;4939232;29;20328;-92
2022/02/25 13:34:50;;;;;;;;;;;11.60;99.90;;;;;;4940004;29;19910;-93
2022/02/25 13:37:15;;;;;;;;;;;11.90;99.90;;;;;;4939942;29;20279;-92
2022/02/25 13:39:41;;;;;;;;;;;12.00;99.90;;;;;;4956540;29;20359;-92
2022/02/25 13:42:06;;;;;;;;;;;11.90;99.90;;;;;;4957562;29;19918;-92
2022/02/25 13:44:34;;;;;;;;;;;12.00;99.90;;;;;;4940584;29;20334;-93
2022/02/25 13:52:29;;;;;;;;;;;12.20;99.90;;;;;;4951990;29;19917;-92
2022/02/25 13:55:05;;;;;;;;;;;12.20;99.90;;;;;;4945199;29;19938;-92
2022/02/25 13:57:35;;;;;;;;;;;12.20;99.90;;;;;;4946358;29;19910;-91
2022/02/25 14:00:03;;;;;;;;;;;12.20;99.90;;;;;;4939419;29;19914;-93
2022/02/25 14:02:33;;;;;;;;;;;12.30;99.90;;;;;;4939264;29;19910;-94
2022/02/25 14:05:13;;;;;;;;;;;12.40;99.90;;;;;;4938684;29;20018;-91
2022/02/25 14:07:41;;;;;;;;;;;12.40;99.90;;;;;;4939118;29;20415;-92
2022/02/25 14:10:27;;;;;;;;;;;12.50;99.90;;;;;;4938351;29;19929;-91
2022/02/25 14:12:53;;;;;;;;;;;12.60;99.90;;;;;;4937743;29;19910;-91
2022/02/25 14:15:21;;;;;;;;;;;12.50;99.90;;;;;;4939043;29;19946;-91
2022/02/25 14:17:48;;;;;;;;;;;12.60;99.90;;;;;;4948407;29;19965;-92
2022/02/25 14:20:19;;;;;;;;;;;12.70;99.90;;;;;;4954859;29;19914;-92
2022/02/25 14:22:57;;;;;;;;;;;12.80;99.90;;;;;;4955198;29;19910;-91
2022/02/25 14:25:26;;;;;;;;;;;12.90;99.90;;;;;;4970695;29;19911;-92
2022/02/25 14:27:59;;;;;;;;;;;12.70;99.90;;;;;;4954542;29;19906;-92
2022/02/25 14:30:30;;;;;;;;;;;12.60;99.90;;;;;;4952262;29;19918;-91
2022/02/25 14:32:55;;;;;;;;;;;12.70;99.90;;;;;;4955735;28;19996;-91
2022/02/25 14:35:26;;;;;;;;;;;12.80;99.90;;;;;;4958510;29;20049;-92
2022/02/25 14:37:52;;;;;;;;;;;12.70;99.90;;;;;;4958655;28;19961;-91
2022/02/25 14:40:18;;;;;;;;;;;12.70;99.90;;;;;;4961635;28;19918;-92